X  Cerrar Datos meteorológicos de aviación METAR     LIML Milano Linate Airport
Temperatura
21°C Temperatura
20°C Punto de rocío
94% Humedad



Viento
5 KM/H
3 MPH
1 M/S
3 NUDO



260°
Oeste
Condiciones actuales

Nubes mayormente dispersas Nubes mayormente dispersas
Presión 1012.92 (hPa) - 29.91 (inHg)
Visibilidad 6.2 (milla) - 10 (km)
Aeropuerto
Código de aeropuerto LIML

localidad: Milano Linate Airport
Distancia: 100 (km)

Metar:
LIML 140450Z AUTO 26003KT 230V290 9999 SCT150/// 21/20 Q1013

Hora: 14-08-2020 06:50 CEST